sensor_id;sensor_type;location;lat;lon;timestamp;P1;durP1;ratioP1;P2;durP2;ratioP2
25153;SDS011;47555;51.038;6.280;2023-06-14T00:00:14;8.23;;;5.75;;
25153;SDS011;47555;51.038;6.280;2023-06-14T00:02:40;6.80;;;6.10;;
25153;SDS011;47555;51.038;6.280;2023-06-14T00:05:06;7.70;;;6.05;;
25153;SDS011;47555;51.038;6.280;2023-06-14T00:07:36;6.32;;;5.72;;
25153;SDS011;47555;51.038;6.280;2023-06-14T00:10:03;7.13;;;6.03;;
25153;SDS011;47555;51.038;6.280;2023-06-14T00:12:30;8.15;;;6.30;;
25153;SDS011;47555;51.038;6.280;2023-06-14T00:14:56;7.32;;;6.05;;
25153;SDS011;47555;51.038;6.280;2023-06-14T00:17:21;7.07;;;6.22;;
25153;SDS011;47555;51.038;6.280;2023-06-14T00:19:47;7.07;;;6.03;;
25153;SDS011;47555;51.038;6.280;2023-06-14T00:22:13;8.68;;;6.10;;
25153;SDS011;47555;51.038;6.280;2023-06-14T00:24:38;9.35;;;6.53;;
25153;SDS011;47555;51.038;6.280;2023-06-14T00:27:04;8.70;;;6.18;;
25153;SDS011;47555;51.038;6.280;2023-06-14T00:29:30;9.82;;;6.43;;
25153;SDS011;47555;51.038;6.280;2023-06-14T00:31:55;6.50;;;5.63;;
25153;SDS011;47555;51.038;6.280;2023-06-14T00:34:21;7.72;;;6.00;;
25153;SDS011;47555;51.038;6.280;2023-06-14T00:36:46;6.78;;;6.03;;
25153;SDS011;47555;51.038;6.280;2023-06-14T00:39:12;7.50;;;6.28;;
25153;SDS011;47555;51.038;6.280;2023-06-14T00:41:39;10.25;;;6.55;;
25153;SDS011;47555;51.038;6.280;2023-06-14T00:44:04;7.60;;;6.45;;
25153;SDS011;47555;51.038;6.280;2023-06-14T00:46:31;7.57;;;6.55;;
25153;SDS011;47555;51.038;6.280;2023-06-14T00:48:57;6.90;;;6.15;;
25153;SDS011;47555;51.038;6.280;2023-06-14T00:51:24;7.10;;;6.00;;
25153;SDS011;47555;51.038;6.280;2023-06-14T00:53:51;8.00;;;6.20;;
25153;SDS011;47555;51.038;6.280;2023-06-14T00:56:17;8.23;;;6.80;;
25153;SDS011;47555;51.038;6.280;2023-06-14T00:58:45;9.73;;;6.43;;
25153;SDS011;47555;51.038;6.280;2023-06-14T01:01:11;7.28;;;6.30;;
25153;SDS011;47555;51.038;6.280;2023-06-14T01:03:37;9.30;;;7.00;;
25153;SDS011;47555;51.038;6.280;2023-06-14T01:06:16;7.65;;;6.53;;
25153;SDS011;47555;51.038;6.280;2023-06-14T01:08:52;9.93;;;6.63;;
25153;SDS011;47555;51.038;6.280;2023-06-14T01:11:26;9.35;;;6.95;;
25153;SDS011;47555;51.038;6.280;2023-06-14T01:13:54;10.02;;;6.65;;
25153;SDS011;47555;51.038;6.280;2023-06-14T01:16:21;8.02;;;6.75;;
25153;SDS011;47555;51.038;6.280;2023-06-14T01:18:48;9.82;;;7.30;;
25153;SDS011;47555;51.038;6.280;2023-06-14T01:21:32;8.20;;;7.03;;
25153;SDS011;47555;51.038;6.280;2023-06-14T01:24:06;8.18;;;6.72;;
25153;SDS011;47555;51.038;6.280;2023-06-14T01:26:33;9.40;;;6.80;;
25153;SDS011;47555;51.038;6.280;2023-06-14T01:29:00;9.07;;;6.85;;
25153;SDS011;47555;51.038;6.280;2023-06-14T01:31:26;7.28;;;6.45;;
25153;SDS011;47555;51.038;6.280;2023-06-14T01:33:54;6.70;;;6.00;;
25153;SDS011;47555;51.038;6.280;2023-06-14T01:36:21;9.15;;;6.30;;
25153;SDS011;47555;51.038;6.280;2023-06-14T01:38:48;9.05;;;6.55;;
25153;SDS011;47555;51.038;6.280;2023-06-14T01:41:16;7.80;;;6.65;;
25153;SDS011;47555;51.038;6.280;2023-06-14T01:43:42;7.72;;;6.43;;
25153;SDS011;47555;51.038;6.280;2023-06-14T01:46:08;8.73;;;6.40;;
25153;SDS011;47555;51.038;6.280;2023-06-14T01:48:34;8.77;;;6.90;;
25153;SDS011;47555;51.038;6.280;2023-06-14T01:51:00;8.80;;;6.70;;
25153;SDS011;47555;51.038;6.280;2023-06-14T01:53:26;8.60;;;6.38;;
25153;SDS011;47555;51.038;6.280;2023-06-14T01:55:52;8.20;;;7.00;;
25153;SDS011;47555;51.038;6.280;2023-06-14T01:58:19;8.18;;;6.40;;
25153;SDS011;47555;51.038;6.280;2023-06-14T02:00:46;8.25;;;6.70;;
25153;SDS011;47555;51.038;6.280;2023-06-14T02:03:12;10.20;;;6.82;;
25153;SDS011;47555;51.038;6.280;2023-06-14T02:05:38;9.20;;;6.82;;
25153;SDS011;47555;51.038;6.280;2023-06-14T02:08:04;8.32;;;6.35;;
25153;SDS011;47555;51.038;6.280;2023-06-14T02:10:30;8.50;;;6.97;;
25153;SDS011;47555;51.038;6.280;2023-06-14T02:12:56;8.40;;;6.60;;
25153;SDS011;47555;51.038;6.280;2023-06-14T02:15:22;7.97;;;5.97;;
25153;SDS011;47555;51.038;6.280;2023-06-14T02:17:48;9.15;;;7.40;;
25153;SDS011;47555;51.038;6.280;2023-06-14T02:20:14;8.35;;;6.85;;
25153;SDS011;47555;51.038;6.280;2023-06-14T02:22:41;11.13;;;7.43;;
25153;SDS011;47555;51.038;6.280;2023-06-14T02:25:09;9.20;;;7.00;;
25153;SDS011;47555;51.038;6.280;2023-06-14T02:27:35;8.52;;;7.22;;
25153;SDS011;47555;51.038;6.280;2023-06-14T02:30:01;9.38;;;7.05;;
25153;SDS011;47555;51.038;6.280;2023-06-14T02:32:27;7.55;;;6.53;;
25153;SDS011;47555;51.038;6.280;2023-06-14T02:34:53;11.90;;;6.82;;
25153;SDS011;47555;51.038;6.280;2023-06-14T02:37:19;11.60;;;6.80;;
25153;SDS011;47555;51.038;6.280;2023-06-14T02:39:45;8.75;;;6.68;;
25153;SDS011;47555;51.038;6.280;2023-06-14T02:42:11;9.30;;;7.30;;
25153;SDS011;47555;51.038;6.280;2023-06-14T02:44:37;7.97;;;6.68;;
25153;SDS011;47555;51.038;6.280;2023-06-14T02:47:04;9.13;;;6.70;;
25153;SDS011;47555;51.038;6.280;2023-06-14T02:49:30;9.00;;;6.38;;
25153;SDS011;47555;51.038;6.280;2023-06-14T02:51:56;6.50;;;5.80;;
25153;SDS011;47555;51.038;6.280;2023-06-14T02:54:22;9.55;;;6.50;;
25153;SDS011;47555;51.038;6.280;2023-06-14T02:56:48;8.85;;;6.55;;
25153;SDS011;47555;51.038;6.280;2023-06-14T02:59:13;10.07;;;7.25;;
25153;SDS011;47555;51.038;6.280;2023-06-14T03:01:40;7.50;;;6.35;;
25153;SDS011;47555;51.038;6.280;2023-06-14T03:04:09;10.35;;;7.00;;
25153;SDS011;47555;51.038;6.280;2023-06-14T03:06:35;9.25;;;7.43;;
25153;SDS011;47555;51.038;6.280;2023-06-14T03:09:02;7.63;;;6.72;;
25153;SDS011;47555;51.038;6.280;2023-06-14T03:11:29;7.70;;;6.38;;
25153;SDS011;47555;51.038;6.280;2023-06-14T03:13:55;11.05;;;7.40;;
25153;SDS011;47555;51.038;6.280;2023-06-14T03:16:22;8.68;;;6.70;;
25153;SDS011;47555;51.038;6.280;2023-06-14T03:18:49;9.65;;;7.43;;
25153;SDS011;47555;51.038;6.280;2023-06-14T03:21:15;8.85;;;6.95;;
25153;SDS011;47555;51.038;6.280;2023-06-14T03:23:42;9.40;;;6.38;;
25153;SDS011;47555;51.038;6.280;2023-06-14T03:26:08;8.77;;;6.82;;
25153;SDS011;47555;51.038;6.280;2023-06-14T03:28:39;7.97;;;6.53;;
25153;SDS011;47555;51.038;6.280;2023-06-14T03:31:05;8.50;;;6.45;;
25153;SDS011;47555;51.038;6.280;2023-06-14T03:33:31;10.65;;;7.18;;
25153;SDS011;47555;51.038;6.280;2023-06-14T03:35:57;9.73;;;6.78;;
25153;SDS011;47555;51.038;6.280;2023-06-14T03:38:23;9.52;;;7.85;;
25153;SDS011;47555;51.038;6.280;2023-06-14T03:40:51;11.90;;;6.97;;
25153;SDS011;47555;51.038;6.280;2023-06-14T03:43:17;9.05;;;6.90;;
25153;SDS011;47555;51.038;6.280;2023-06-14T03:45:43;9.15;;;7.22;;
25153;SDS011;47555;51.038;6.280;2023-06-14T03:48:09;9.43;;;6.90;;
25153;SDS011;47555;51.038;6.280;2023-06-14T03:50:36;9.55;;;6.78;;
25153;SDS011;47555;51.038;6.280;2023-06-14T03:53:05;12.88;;;7.13;;
25153;SDS011;47555;51.038;6.280;2023-06-14T03:55:31;8.80;;;6.32;;
25153;SDS011;47555;51.038;6.280;2023-06-14T03:57:58;8.65;;;7.10;;
25153;SDS011;47555;51.038;6.280;2023-06-14T04:00:24;8.45;;;6.15;;
25153;SDS011;47555;51.038;6.280;2023-06-14T04:02:50;8.63;;;6.90;;
25153;SDS011;47555;51.038;6.280;2023-06-14T04:05:16;10.68;;;7.32;;
25153;SDS011;47555;51.038;6.280;2023-06-14T04:07:44;11.40;;;6.75;;
25153;SDS011;47555;51.038;6.280;2023-06-14T04:10:10;11.27;;;7.30;;
25153;SDS011;47555;51.038;6.280;2023-06-14T04:12:39;9.32;;;7.03;;
25153;SDS011;47555;51.038;6.280;2023-06-14T04:15:06;9.32;;;7.25;;
25153;SDS011;47555;51.038;6.280;2023-06-14T04:17:33;10.00;;;7.07;;
25153;SDS011;47555;51.038;6.280;2023-06-14T04:19:59;9.60;;;8.10;;
25153;SDS011;47555;51.038;6.280;2023-06-14T04:22:25;10.13;;;7.30;;
25153;SDS011;47555;51.038;6.280;2023-06-14T04:24:53;10.18;;;7.50;;
25153;SDS011;47555;51.038;6.280;2023-06-14T04:27:21;10.70;;;7.32;;
25153;SDS011;47555;51.038;6.280;2023-06-14T04:29:50;9.70;;;7.72;;
25153;SDS011;47555;51.038;6.280;2023-06-14T04:32:21;11.68;;;7.63;;
25153;SDS011;47555;51.038;6.280;2023-06-14T04:34:47;9.82;;;7.05;;
25153;SDS011;47555;51.038;6.280;2023-06-14T04:37:13;12.38;;;7.32;;
25153;SDS011;47555;51.038;6.280;2023-06-14T04:39:39;8.93;;;7.47;;
25153;SDS011;47555;51.038;6.280;2023-06-14T04:42:07;10.68;;;7.75;;
25153;SDS011;47555;51.038;6.280;2023-06-14T04:44:33;10.65;;;6.97;;
25153;SDS011;47555;51.038;6.280;2023-06-14T04:46:59;13.23;;;7.63;;
25153;SDS011;47555;51.038;6.280;2023-06-14T04:49:25;8.55;;;6.82;;
25153;SDS011;47555;51.038;6.280;2023-06-14T04:51:52;10.52;;;7.70;;
25153;SDS011;47555;51.038;6.280;2023-06-14T04:54:26;10.05;;;7.47;;
25153;SDS011;47555;51.038;6.280;2023-06-14T04:56:52;8.80;;;7.18;;
25153;SDS011;47555;51.038;6.280;2023-06-14T04:59:20;8.90;;;7.30;;
25153;SDS011;47555;51.038;6.280;2023-06-14T05:01:47;11.45;;;7.03;;
25153;SDS011;47555;51.038;6.280;2023-06-14T05:04:14;9.70;;;7.15;;
25153;SDS011;47555;51.038;6.280;2023-06-14T05:06:41;9.73;;;7.50;;
25153;SDS011;47555;51.038;6.280;2023-06-14T05:09:07;9.88;;;7.55;;
25153;SDS011;47555;51.038;6.280;2023-06-14T05:11:32;11.60;;;7.13;;
25153;SDS011;47555;51.038;6.280;2023-06-14T05:13:58;14.20;;;7.40;;
25153;SDS011;47555;51.038;6.280;2023-06-14T05:16:25;8.82;;;7.20;;
25153;SDS011;47555;51.038;6.280;2023-06-14T05:18:52;12.48;;;7.25;;
25153;SDS011;47555;51.038;6.280;2023-06-14T05:21:18;10.27;;;7.68;;
25153;SDS011;47555;51.038;6.280;2023-06-14T05:23:44;13.23;;;7.10;;
25153;SDS011;47555;51.038;6.280;2023-06-14T05:26:10;11.40;;;7.15;;
25153;SDS011;47555;51.038;6.280;2023-06-14T05:28:36;12.93;;;7.55;;
25153;SDS011;47555;51.038;6.280;2023-06-14T05:31:02;9.65;;;7.10;;
25153;SDS011;47555;51.038;6.280;2023-06-14T05:33:28;12.50;;;6.97;;
25153;SDS011;47555;51.038;6.280;2023-06-14T05:35:54;13.23;;;7.32;;
25153;SDS011;47555;51.038;6.280;2023-06-14T05:38:21;11.82;;;7.25;;
25153;SDS011;47555;51.038;6.280;2023-06-14T05:40:47;11.13;;;7.45;;
25153;SDS011;47555;51.038;6.280;2023-06-14T05:43:13;10.57;;;6.97;;
25153;SDS011;47555;51.038;6.280;2023-06-14T05:45:39;11.05;;;7.03;;
25153;SDS011;47555;51.038;6.280;2023-06-14T05:48:05;12.05;;;6.95;;
25153;SDS011;47555;51.038;6.280;2023-06-14T05:50:31;12.32;;;7.28;;
25153;SDS011;47555;51.038;6.280;2023-06-14T05:52:57;10.50;;;6.60;;
25153;SDS011;47555;51.038;6.280;2023-06-14T05:55:23;10.57;;;6.72;;
25153;SDS011;47555;51.038;6.280;2023-06-14T05:57:49;11.45;;;7.15;;
25153;SDS011;47555;51.038;6.280;2023-06-14T06:00:16;14.23;;;6.97;;
25153;SDS011;47555;51.038;6.280;2023-06-14T06:02:43;8.10;;;6.07;;
25153;SDS011;47555;51.038;6.280;2023-06-14T06:05:10;12.18;;;6.50;;
25153;SDS011;47555;51.038;6.280;2023-06-14T06:07:36;9.40;;;5.97;;
25153;SDS011;47555;51.038;6.280;2023-06-14T06:10:02;9.15;;;6.40;;
25153;SDS011;47555;51.038;6.280;2023-06-14T06:12:28;12.40;;;6.43;;
25153;SDS011;47555;51.038;6.280;2023-06-14T06:14:54;15.93;;;6.60;;
25153;SDS011;47555;51.038;6.280;2023-06-14T06:17:20;12.15;;;6.50;;
25153;SDS011;47555;51.038;6.280;2023-06-14T06:19:46;9.45;;;6.40;;
25153;SDS011;47555;51.038;6.280;2023-06-14T06:22:12;9.60;;;6.22;;
25153;SDS011;47555;51.038;6.280;2023-06-14T06:24:38;10.50;;;6.20;;
25153;SDS011;47555;51.038;6.280;2023-06-14T06:27:04;9.98;;;5.78;;
25153;SDS011;47555;51.038;6.280;2023-06-14T06:29:32;9.70;;;5.57;;
25153;SDS011;47555;51.038;6.280;2023-06-14T06:31:58;15.60;;;6.50;;
25153;SDS011;47555;51.038;6.280;2023-06-14T06:34:24;12.98;;;5.30;;
25153;SDS011;47555;51.038;6.280;2023-06-14T06:36:50;10.50;;;5.70;;
25153;SDS011;47555;51.038;6.280;2023-06-14T06:39:16;12.45;;;5.95;;
25153;SDS011;47555;51.038;6.280;2023-06-14T06:41:42;8.35;;;6.20;;
25153;SDS011;47555;51.038;6.280;2023-06-14T06:44:08;12.25;;;6.22;;
25153;SDS011;47555;51.038;6.280;2023-06-14T06:46:37;12.55;;;6.40;;
25153;SDS011;47555;51.038;6.280;2023-06-14T06:49:06;11.45;;;5.72;;
25153;SDS011;47555;51.038;6.280;2023-06-14T06:51:32;13.85;;;6.25;;
25153;SDS011;47555;51.038;6.280;2023-06-14T06:53:58;13.68;;;6.38;;
25153;SDS011;47555;51.038;6.280;2023-06-14T06:56:24;17.02;;;5.85;;
25153;SDS011;47555;51.038;6.280;2023-06-14T06:58:50;12.02;;;6.13;;
25153;SDS011;47555;51.038;6.280;2023-06-14T07:01:16;13.52;;;5.50;;
25153;SDS011;47555;51.038;6.280;2023-06-14T07:03:43;11.48;;;5.47;;
25153;SDS011;47555;51.038;6.280;2023-06-14T07:06:09;9.82;;;5.30;;
25153;SDS011;47555;51.038;6.280;2023-06-14T07:08:35;10.00;;;5.07;;
25153;SDS011;47555;51.038;6.280;2023-06-14T07:11:03;7.85;;;4.55;;
25153;SDS011;47555;51.038;6.280;2023-06-14T07:13:29;8.73;;;5.30;;
25153;SDS011;47555;51.038;6.280;2023-06-14T07:15:57;6.93;;;4.38;;
25153;SDS011;47555;51.038;6.280;2023-06-14T07:18:23;5.53;;;3.90;;
25153;SDS011;47555;51.038;6.280;2023-06-14T07:20:49;6.95;;;4.72;;
25153;SDS011;47555;51.038;6.280;2023-06-14T07:23:15;8.50;;;4.55;;
25153;SDS011;47555;51.038;6.280;2023-06-14T07:25:41;11.68;;;4.72;;
25153;SDS011;47555;51.038;6.280;2023-06-14T07:28:07;9.38;;;4.03;;
25153;SDS011;47555;51.038;6.280;2023-06-14T07:30:33;8.00;;;4.40;;
25153;SDS011;47555;51.038;6.280;2023-06-14T07:32:59;8.63;;;4.43;;
25153;SDS011;47555;51.038;6.280;2023-06-14T07:35:25;6.45;;;4.25;;
25153;SDS011;47555;51.038;6.280;2023-06-14T07:37:51;7.57;;;4.22;;
25153;SDS011;47555;51.038;6.280;2023-06-14T07:40:17;6.00;;;4.30;;
25153;SDS011;47555;51.038;6.280;2023-06-14T07:42:43;6.70;;;4.13;;
25153;SDS011;47555;51.038;6.280;2023-06-14T07:45:09;7.40;;;4.03;;
25153;SDS011;47555;51.038;6.280;2023-06-14T07:47:35;6.07;;;3.78;;
25153;SDS011;47555;51.038;6.280;2023-06-14T07:50:01;4.35;;;3.85;;
25153;SDS011;47555;51.038;6.280;2023-06-14T07:52:28;3.97;;;3.58;;
25153;SDS011;47555;51.038;6.280;2023-06-14T07:54:54;5.43;;;3.80;;
25153;SDS011;47555;51.038;6.280;2023-06-14T07:57:19;7.38;;;3.88;;
25153;SDS011;47555;51.038;6.280;2023-06-14T07:59:46;6.50;;;3.72;;
25153;SDS011;47555;51.038;6.280;2023-06-14T08:02:12;7.03;;;3.78;;
25153;SDS011;47555;51.038;6.280;2023-06-14T08:04:38;6.65;;;3.50;;
25153;SDS011;47555;51.038;6.280;2023-06-14T08:07:04;6.32;;;4.03;;
25153;SDS011;47555;51.038;6.280;2023-06-14T08:09:30;9.30;;;4.00;;
25153;SDS011;47555;51.038;6.280;2023-06-14T08:11:56;7.75;;;3.72;;
25153;SDS011;47555;51.038;6.280;2023-06-14T08:14:22;9.38;;;4.00;;
25153;SDS011;47555;51.038;6.280;2023-06-14T08:16:48;5.63;;;3.85;;
25153;SDS011;47555;51.038;6.280;2023-06-14T08:19:14;8.13;;;4.80;;
25153;SDS011;47555;51.038;6.280;2023-06-14T08:21:41;9.95;;;3.60;;
25153;SDS011;47555;51.038;6.280;2023-06-14T08:24:08;7.13;;;3.53;;
25153;SDS011;47555;51.038;6.280;2023-06-14T08:26:35;9.05;;;4.07;;
25153;SDS011;47555;51.038;6.280;2023-06-14T08:29:01;5.18;;;3.50;;
25153;SDS011;47555;51.038;6.280;2023-06-14T08:31:27;8.18;;;3.58;;
25153;SDS011;47555;51.038;6.280;2023-06-14T08:33:53;5.20;;;3.30;;
25153;SDS011;47555;51.038;6.280;2023-06-14T08:36:19;7.38;;;3.72;;
25153;SDS011;47555;51.038;6.280;2023-06-14T08:38:45;5.25;;;3.70;;
25153;SDS011;47555;51.038;6.280;2023-06-14T08:41:11;8.38;;;3.90;;
25153;SDS011;47555;51.038;6.280;2023-06-14T08:43:40;7.88;;;3.78;;
25153;SDS011;47555;51.038;6.280;2023-06-14T08:46:06;6.20;;;3.50;;
25153;SDS011;47555;51.038;6.280;2023-06-14T08:48:36;6.22;;;3.20;;
25153;SDS011;47555;51.038;6.280;2023-06-14T08:51:02;5.45;;;3.40;;
25153;SDS011;47555;51.038;6.280;2023-06-14T08:53:32;5.85;;;3.58;;
25153;SDS011;47555;51.038;6.280;2023-06-14T08:56:02;4.15;;;3.30;;
25153;SDS011;47555;51.038;6.280;2023-06-14T08:58:30;5.85;;;3.58;;
25153;SDS011;47555;51.038;6.280;2023-06-14T09:00:56;5.15;;;3.55;;
25153;SDS011;47555;51.038;6.280;2023-06-14T09:03:23;4.03;;;3.13;;
25153;SDS011;47555;51.038;6.280;2023-06-14T09:05:54;6.32;;;3.35;;
25153;SDS011;47555;51.038;6.280;2023-06-14T09:08:20;5.05;;;3.30;;
25153;SDS011;47555;51.038;6.280;2023-06-14T09:10:47;4.07;;;2.88;;
25153;SDS011;47555;51.038;6.280;2023-06-14T09:13:13;5.97;;;2.88;;
25153;SDS011;47555;51.038;6.280;2023-06-14T09:15:39;2.40;;;2.20;;
25153;SDS011;47555;51.038;6.280;2023-06-14T09:18:05;4.40;;;2.20;;
25153;SDS011;47555;51.038;6.280;2023-06-14T09:20:31;3.83;;;1.92;;
25153;SDS011;47555;51.038;6.280;2023-06-14T09:22:58;2.70;;;1.55;;
25153;SDS011;47555;51.038;6.280;2023-06-14T09:25:24;2.97;;;2.03;;
25153;SDS011;47555;51.038;6.280;2023-06-14T09:27:52;3.13;;;1.70;;
25153;SDS011;47555;51.038;6.280;2023-06-14T09:30:19;2.25;;;1.60;;
25153;SDS011;47555;51.038;6.280;2023-06-14T09:32:46;4.03;;;1.90;;
25153;SDS011;47555;51.038;6.280;2023-06-14T09:35:12;4.93;;;1.90;;
25153;SDS011;47555;51.038;6.280;2023-06-14T09:37:38;3.17;;;1.67;;
25153;SDS011;47555;51.038;6.280;2023-06-14T09:40:05;3.58;;;1.92;;
25153;SDS011;47555;51.038;6.280;2023-06-14T09:42:32;3.05;;;2.20;;
25153;SDS011;47555;51.038;6.280;2023-06-14T09:45:00;6.20;;;2.08;;
25153;SDS011;47555;51.038;6.280;2023-06-14T09:47:27;4.15;;;2.25;;
25153;SDS011;47555;51.038;6.280;2023-06-14T09:49:53;2.55;;;1.73;;
25153;SDS011;47555;51.038;6.280;2023-06-14T09:52:21;4.13;;;2.22;;
25153;SDS011;47555;51.038;6.280;2023-06-14T09:54:48;2.75;;;1.80;;
25153;SDS011;47555;51.038;6.280;2023-06-14T09:57:15;2.70;;;2.05;;
25153;SDS011;47555;51.038;6.280;2023-06-14T09:59:45;3.75;;;2.30;;
25153;SDS011;47555;51.038;6.280;2023-06-14T10:02:22;2.67;;;1.87;;
25153;SDS011;47555;51.038;6.280;2023-06-14T10:04:50;4.65;;;1.92;;
25153;SDS011;47555;51.038;6.280;2023-06-14T10:07:19;5.03;;;2.30;;
25153;SDS011;47555;51.038;6.280;2023-06-14T10:09:50;2.55;;;1.90;;
25153;SDS011;47555;51.038;6.280;2023-06-14T10:12:16;3.00;;;1.95;;
25153;SDS011;47555;51.038;6.280;2023-06-14T10:14:48;2.55;;;2.05;;
25153;SDS011;47555;51.038;6.280;2023-06-14T10:17:20;4.18;;;2.10;;
25153;SDS011;47555;51.038;6.280;2023-06-14T10:19:53;2.50;;;1.92;;
25153;SDS011;47555;51.038;6.280;2023-06-14T10:22:22;2.45;;;1.95;;
25153;SDS011;47555;51.038;6.280;2023-06-14T10:24:50;2.60;;;1.85;;
25153;SDS011;47555;51.038;6.280;2023-06-14T10:27:16;3.95;;;2.20;;
25153;SDS011;47555;51.038;6.280;2023-06-14T10:32:24;2.72;;;2.00;;
25153;SDS011;47555;51.038;6.280;2023-06-14T10:34:57;3.13;;;2.30;;
25153;SDS011;47555;51.038;6.280;2023-06-14T10:37:23;3.40;;;1.63;;
25153;SDS011;47555;51.038;6.280;2023-06-14T10:39:52;2.22;;;1.52;;
25153;SDS011;47555;51.038;6.280;2023-06-14T10:42:18;3.42;;;1.60;;
25153;SDS011;47555;51.038;6.280;2023-06-14T10:44:50;2.22;;;1.70;;
25153;SDS011;47555;51.038;6.280;2023-06-14T10:49:55;3.30;;;1.92;;
25153;SDS011;47555;51.038;6.280;2023-06-14T10:52:23;2.67;;;1.73;;
25153;SDS011;47555;51.038;6.280;2023-06-14T10:57:31;3.67;;;1.92;;
25153;SDS011;47555;51.038;6.280;2023-06-14T11:00:00;4.55;;;1.90;;
25153;SDS011;47555;51.038;6.280;2023-06-14T11:02:43;5.25;;;2.17;;
25153;SDS011;47555;51.038;6.280;2023-06-14T11:05:14;2.80;;;2.08;;
25153;SDS011;47555;51.038;6.280;2023-06-14T11:10:40;2.20;;;1.90;;
25153;SDS011;47555;51.038;6.280;2023-06-14T11:13:06;2.92;;;2.13;;
25153;SDS011;47555;51.038;6.280;2023-06-14T11:15:33;4.18;;;2.10;;
25153;SDS011;47555;51.038;6.280;2023-06-14T11:18:03;2.13;;;1.80;;
25153;SDS011;47555;51.038;6.280;2023-06-14T11:20:31;2.27;;;1.80;;
25153;SDS011;47555;51.038;6.280;2023-06-14T11:22:57;2.58;;;2.10;;
25153;SDS011;47555;51.038;6.280;2023-06-14T11:25:23;4.00;;;2.10;;
25153;SDS011;47555;51.038;6.280;2023-06-14T11:27:50;4.40;;;2.00;;
25153;SDS011;47555;51.038;6.280;2023-06-14T11:30:16;2.10;;;1.90;;
25153;SDS011;47555;51.038;6.280;2023-06-14T11:32:42;2.78;;;2.22;;
25153;SDS011;47555;51.038;6.280;2023-06-14T11:35:08;3.22;;;2.13;;
25153;SDS011;47555;51.038;6.280;2023-06-14T11:37:35;3.20;;;2.40;;
25153;SDS011;47555;51.038;6.280;2023-06-14T11:40:06;3.25;;;2.13;;
25153;SDS011;47555;51.038;6.280;2023-06-14T11:42:34;2.45;;;2.10;;
25153;SDS011;47555;51.038;6.280;2023-06-14T11:45:00;3.53;;;2.25;;
25153;SDS011;47555;51.038;6.280;2023-06-14T11:47:34;2.72;;;2.22;;
25153;SDS011;47555;51.038;6.280;2023-06-14T11:50:04;3.17;;;2.42;;
25153;SDS011;47555;51.038;6.280;2023-06-14T11:52:30;4.63;;;2.30;;
25153;SDS011;47555;51.038;6.280;2023-06-14T11:54:56;2.65;;;2.45;;
25153;SDS011;47555;51.038;6.280;2023-06-14T11:57:23;3.03;;;2.38;;
25153;SDS011;47555;51.038;6.280;2023-06-14T11:59:49;3.42;;;2.42;;
25153;SDS011;47555;51.038;6.280;2023-06-14T12:02:15;3.70;;;2.28;;
25153;SDS011;47555;51.038;6.280;2023-06-14T12:04:42;2.65;;;1.95;;
25153;SDS011;47555;51.038;6.280;2023-06-14T12:07:11;5.38;;;3.63;;
25153;SDS011;47555;51.038;6.280;2023-06-14T12:09:40;5.22;;;2.13;;
25153;SDS011;47555;51.038;6.280;2023-06-14T12:12:09;2.30;;;2.08;;
25153;SDS011;47555;51.038;6.280;2023-06-14T12:14:35;3.47;;;1.90;;
25153;SDS011;47555;51.038;6.280;2023-06-14T12:17:05;2.08;;;1.67;;
25153;SDS011;47555;51.038;6.280;2023-06-14T12:19:41;3.58;;;1.67;;
25153;SDS011;47555;51.038;6.280;2023-06-14T12:22:09;2.30;;;1.75;;
25153;SDS011;47555;51.038;6.280;2023-06-14T12:24:35;2.08;;;1.77;;
25153;SDS011;47555;51.038;6.280;2023-06-14T12:27:01;3.22;;;2.00;;
25153;SDS011;47555;51.038;6.280;2023-06-14T12:29:30;2.88;;;1.83;;
25153;SDS011;47555;51.038;6.280;2023-06-14T12:31:56;2.13;;;1.92;;
25153;SDS011;47555;51.038;6.280;2023-06-14T12:34:23;2.15;;;1.90;;
25153;SDS011;47555;51.038;6.280;2023-06-14T12:36:52;5.53;;;2.10;;
25153;SDS011;47555;51.038;6.280;2023-06-14T12:39:18;2.25;;;1.70;;
25153;SDS011;47555;51.038;6.280;2023-06-14T12:41:44;2.30;;;1.90;;
25153;SDS011;47555;51.038;6.280;2023-06-14T12:44:11;2.60;;;1.95;;
25153;SDS011;47555;51.038;6.280;2023-06-14T12:46:37;3.67;;;2.20;;
25153;SDS011;47555;51.038;6.280;2023-06-14T12:49:07;4.43;;;2.08;;
25153;SDS011;47555;51.038;6.280;2023-06-14T12:51:33;3.25;;;2.38;;
25153;SDS011;47555;51.038;6.280;2023-06-14T12:53:59;2.97;;;2.20;;
25153;SDS011;47555;51.038;6.280;2023-06-14T12:56:25;4.13;;;2.40;;
25153;SDS011;47555;51.038;6.280;2023-06-14T12:58:52;4.57;;;2.17;;
25153;SDS011;47555;51.038;6.280;2023-06-14T13:01:18;3.92;;;2.75;;
25153;SDS011;47555;51.038;6.280;2023-06-14T13:03:44;4.75;;;2.60;;
25153;SDS011;47555;51.038;6.280;2023-06-14T13:06:10;2.80;;;2.13;;
25153;SDS011;47555;51.038;6.280;2023-06-14T13:08:36;5.20;;;2.50;;
25153;SDS011;47555;51.038;6.280;2023-06-14T13:11:02;6.22;;;2.72;;
25153;SDS011;47555;51.038;6.280;2023-06-14T13:13:28;2.85;;;2.40;;
25153;SDS011;47555;51.038;6.280;2023-06-14T13:15:54;3.58;;;2.47;;
25153;SDS011;47555;51.038;6.280;2023-06-14T13:18:20;4.50;;;2.60;;
25153;SDS011;47555;51.038;6.280;2023-06-14T13:20:46;4.72;;;2.55;;
25153;SDS011;47555;51.038;6.280;2023-06-14T13:23:12;5.13;;;2.50;;
25153;SDS011;47555;51.038;6.280;2023-06-14T13:25:39;3.10;;;2.30;;
25153;SDS011;47555;51.038;6.280;2023-06-14T13:28:05;2.60;;;2.40;;
25153;SDS011;47555;51.038;6.280;2023-06-14T13:30:31;3.38;;;2.42;;
25153;SDS011;47555;51.038;6.280;2023-06-14T13:32:58;3.10;;;2.58;;
25153;SDS011;47555;51.038;6.280;2023-06-14T13:35:24;3.45;;;2.55;;
25153;SDS011;47555;51.038;6.280;2023-06-14T13:37:50;3.08;;;2.58;;
25153;SDS011;47555;51.038;6.280;2023-06-14T13:40:16;5.43;;;2.80;;
25153;SDS011;47555;51.038;6.280;2023-06-14T13:42:42;3.92;;;2.50;;
25153;SDS011;47555;51.038;6.280;2023-06-14T13:45:09;3.67;;;2.22;;
25153;SDS011;47555;51.038;6.280;2023-06-14T13:47:36;3.30;;;2.20;;
25153;SDS011;47555;51.038;6.280;2023-06-14T13:50:02;2.72;;;2.20;;
25153;SDS011;47555;51.038;6.280;2023-06-14T13:52:28;5.97;;;2.60;;
25153;SDS011;47555;51.038;6.280;2023-06-14T13:54:54;2.50;;;2.05;;
25153;SDS011;47555;51.038;6.280;2023-06-14T13:57:20;2.33;;;2.13;;
25153;SDS011;47555;51.038;6.280;2023-06-14T13:59:46;3.00;;;2.17;;
25153;SDS011;47555;51.038;6.280;2023-06-14T14:02:13;3.80;;;2.33;;
25153;SDS011;47555;51.038;6.280;2023-06-14T14:04:39;5.43;;;2.20;;
25153;SDS011;47555;51.038;6.280;2023-06-14T14:07:06;2.58;;;2.05;;
25153;SDS011;47555;51.038;6.280;2023-06-14T14:09:32;2.08;;;1.90;;
25153;SDS011;47555;51.038;6.280;2023-06-14T14:11:59;3.88;;;2.00;;
25153;SDS011;47555;51.038;6.280;2023-06-14T14:14:25;2.20;;;2.00;;
25153;SDS011;47555;51.038;6.280;2023-06-14T14:16:51;2.38;;;2.17;;
25153;SDS011;47555;51.038;6.280;2023-06-14T14:19:18;4.50;;;2.15;;
25153;SDS011;47555;51.038;6.280;2023-06-14T14:21:44;2.25;;;2.03;;
25153;SDS011;47555;51.038;6.280;2023-06-14T14:24:10;3.70;;;2.22;;
25153;SDS011;47555;51.038;6.280;2023-06-14T14:26:36;2.03;;;1.90;;
25153;SDS011;47555;51.038;6.280;2023-06-14T14:29:02;2.88;;;2.65;;
25153;SDS011;47555;51.038;6.280;2023-06-14T14:31:28;2.70;;;1.80;;
25153;SDS011;47555;51.038;6.280;2023-06-14T14:33:54;2.75;;;1.92;;
25153;SDS011;47555;51.038;6.280;2023-06-14T14:36:20;2.58;;;1.63;;
25153;SDS011;47555;51.038;6.280;2023-06-14T14:38:46;2.00;;;1.90;;
25153;SDS011;47555;51.038;6.280;2023-06-14T14:41:12;2.45;;;2.00;;
25153;SDS011;47555;51.038;6.280;2023-06-14T14:43:38;2.10;;;1.90;;
25153;SDS011;47555;51.038;6.280;2023-06-14T14:46:04;1.95;;;1.80;;
25153;SDS011;47555;51.038;6.280;2023-06-14T14:48:30;2.55;;;1.73;;
25153;SDS011;47555;51.038;6.280;2023-06-14T14:50:56;1.70;;;1.60;;
25153;SDS011;47555;51.038;6.280;2023-06-14T14:53:23;2.90;;;2.00;;